Cottageville, South Carolina
Current Conditions -  °F | °C
As of 4:15 AM on Saturday 01 Nov 2014 (Local Time) from KRBW Reporting Station
Overcast Overcast  
Wind Chill: 52°   Ceiling: 9500
Heat Index: 52°   Visibility: 10mi
Dew Point: 50°   Wind: 8mph
Humidity: 94%   Direction: 270°W
Pressure: 29.74"   Gusts: NA
Location:  32.94°N, 80.48°W
Report Text: KRBW 010815Z AUTO 27007KT 10SM SCT075 SCT080 OVC095 11/10 A2974 RMK AO2
Loading
Personal Weather Stations






























Interactive Weather Map
Tropical Storm Tracking
New forecast layout! Learn more

10-Day Weather Forecast

Advertisements
Track Severe Weather on mobile